createdAt,value
2022-08-03T08:14:53.448Z,44.14
2022-08-03T08:17:22.473Z,43.85
2022-08-03T08:19:54.847Z,41.57
2022-08-03T08:22:29.780Z,44.20
2022-08-03T08:24:59.555Z,42.82
2022-08-03T08:27:28.948Z,45.08
2022-08-03T08:30:22.091Z,42.87
2022-08-03T08:32:50.829Z,42.01
2022-08-03T08:35:18.755Z,45.06
2022-08-03T08:37:51.253Z,42.75
2022-08-03T08:43:07.704Z,44.18
2022-08-03T08:45:35.692Z,44.86
2022-08-03T08:48:08.213Z,41.99
2022-08-03T08:50:47.315Z,42.12
2022-08-03T08:53:17.562Z,42.54
2022-08-03T08:55:57.947Z,43.43
2022-08-03T08:58:37.083Z,43.41
2022-08-03T09:01:09.932Z,45.52
2022-08-03T09:03:43.688Z,45.35
2022-08-03T09:06:17.872Z,43.03
2022-08-03T09:08:45.356Z,45.75
2022-08-03T09:11:13.408Z,42.37
2022-08-03T09:13:42.261Z,44.61
2022-08-03T09:16:23.672Z,45.08
2022-08-03T09:21:35.811Z,45.29
2022-08-03T09:24:40.651Z,44.22
2022-08-03T09:30:03.191Z,43.72
2022-08-03T09:48:38.725Z,41.75
2022-08-03T09:52:32.734Z,42.00
2022-08-03T09:54:32.427Z,41.95
2022-08-03T09:57:02.658Z,37.80
2022-08-03T09:59:31.935Z,39.34
2022-08-03T10:02:00.929Z,41.78
2022-08-03T10:04:28.775Z,38.73
2022-08-03T10:07:07.736Z,38.50
2022-08-03T10:09:36.965Z,35.56
2022-08-03T10:12:13.106Z,34.79
2022-08-03T10:14:43.895Z,36.37
2022-08-03T10:20:10.198Z,37.54
2022-08-03T10:22:41.771Z,32.71
2022-08-03T10:25:12.721Z,36.96
2022-08-03T10:27:42.421Z,33.66
2022-08-03T10:30:14.150Z,31.49
2022-08-03T10:32:47.219Z,36.13
2022-08-03T10:35:23.655Z,34.81
2022-08-03T10:38:10.621Z,34.92
2022-08-03T10:40:48.531Z,35.47
2022-08-03T10:43:31.258Z,35.14
2022-08-03T10:49:35.726Z,35.24
2022-08-03T10:52:13.026Z,33.92
2022-08-03T10:55:03.098Z,31.95
2022-08-03T10:58:00.751Z,34.66
2022-08-03T11:00:30.613Z,33.68
2022-08-03T11:03:16.253Z,34.34
2022-08-03T11:05:46.337Z,31.15
2022-08-03T11:08:26.297Z,34.83
2022-08-03T11:11:24.782Z,34.76
2022-08-03T11:14:03.607Z,34.51
2022-08-03T11:16:35.953Z,31.44
2022-08-03T11:19:11.145Z,32.62
2022-08-03T11:21:55.297Z,34.49
2022-08-03T11:24:40.792Z,34.40
2022-08-03T11:27:15.199Z,34.34
2022-08-03T11:30:01.644Z,34.44
2022-08-03T11:32:39.058Z,34.56
2022-08-03T11:35:13.648Z,34.87
2022-08-03T11:38:04.817Z,35.02
2022-08-03T11:40:33.177Z,35.02
2022-08-03T11:43:00.711Z,30.49
2022-08-03T11:45:28.525Z,34.82
2022-08-03T11:47:56.336Z,34.90
2022-08-03T11:50:25.348Z,33.48
2022-08-03T11:52:53.750Z,31.04
2022-08-03T11:55:26.776Z,33.08
2022-08-03T11:59:15.256Z,33.00
2022-08-03T12:00:50.704Z,34.02
2022-08-03T12:03:20.915Z,30.49
2022-08-03T12:05:53.595Z,31.05
2022-08-03T12:08:28.531Z,33.78
2022-08-03T12:10:57.764Z,30.40
2022-08-03T12:14:36.785Z,30.76
2022-08-03T12:16:25.033Z,30.34
2022-08-03T12:19:00.813Z,29.37
2022-08-03T12:21:30.344Z,31.78
2022-08-03T12:24:00.786Z,30.46
2022-08-03T12:26:30.182Z,33.25
2022-08-03T12:28:58.625Z,29.55
2022-08-03T12:31:26.860Z,33.77
2022-08-03T12:34:06.866Z,33.14
2022-08-03T12:36:36.158Z,31.69
2022-08-03T12:39:09.014Z,34.66
2022-08-03T12:41:39.414Z,31.98
2022-08-03T12:44:08.958Z,33.97
2022-08-03T12:46:39.399Z,31.79
2022-08-03T12:49:19.223Z,32.04
2022-08-03T12:51:46.939Z,35.73
2022-08-03T12:54:25.467Z,34.65
2022-08-03T12:57:16.251Z,35.88
2022-08-03T12:59:52.680Z,36.01
2022-08-03T13:02:24.138Z,34.53
2022-08-03T13:04:56.576Z,32.79
2022-08-03T13:07:24.766Z,33.51
2022-08-03T13:09:55.025Z,31.75
2022-08-03T13:12:25.815Z,31.73
2022-08-03T13:14:58.652Z,33.38
2022-08-03T13:17:27.748Z,33.44
2022-08-03T13:19:57.299Z,35.49
2022-08-03T13:22:29.004Z,35.73
2022-08-03T13:24:58.363Z,33.57
2022-08-03T13:28:05.189Z,31.30
2022-08-03T13:30:29.911Z,33.40
2022-08-03T13:32:59.264Z,34.59
2022-08-03T13:35:27.777Z,35.47
2022-08-03T13:37:56.177Z,33.94
2022-08-03T13:40:30.023Z,32.03
2022-08-03T13:42:58.301Z,32.83
2022-08-03T13:48:15.980Z,31.06
2022-08-03T13:51:11.782Z,31.18
2022-08-03T13:53:51.385Z,34.51
2022-08-03T13:56:20.234Z,35.27
2022-08-03T13:58:48.421Z,34.82
2022-08-03T14:01:18.557Z,34.09
2022-08-03T14:03:54.487Z,35.08
2022-08-03T14:06:27.008Z,35.89
2022-08-03T14:08:57.872Z,34.23
2022-08-03T14:12:07.078Z,36.06
2022-08-03T14:14:17.136Z,36.24
2022-08-03T14:16:44.969Z,36.40
2022-08-03T14:19:17.207Z,33.36
2022-08-03T14:22:03.684Z,34.06
2022-08-03T14:24:36.294Z,32.63
2022-08-03T14:27:09.193Z,36.52
2022-08-03T14:29:37.423Z,36.78
2022-08-03T14:32:11.269Z,36.62
2022-08-03T14:34:39.918Z,36.34
2022-08-03T14:37:07.581Z,36.61
2022-08-03T14:42:24.262Z,32.95
2022-08-03T14:44:51.706Z,35.89
2022-08-03T14:47:19.787Z,35.06
2022-08-03T14:50:31.517Z,37.12
2022-08-03T14:52:36.771Z,36.97
2022-08-03T14:55:04.246Z,36.41
2022-08-03T14:57:31.471Z,36.74
2022-08-03T14:59:58.743Z,35.91
2022-08-03T15:02:26.347Z,36.40
2022-08-03T15:04:57.005Z,36.08
2022-08-03T15:07:24.396Z,35.75
2022-08-03T15:09:51.862Z,35.36
2022-08-03T15:12:19.401Z,33.59
2022-08-03T15:14:46.888Z,32.69
2022-08-03T15:17:14.403Z,36.16
2022-08-03T15:20:03.919Z,35.99
2022-08-03T15:22:34.610Z,35.41
2022-08-03T15:25:04.146Z,34.90
2022-08-03T15:28:03.593Z,36.11
2022-08-03T15:30:36.323Z,32.65
2022-08-03T15:33:04.126Z,33.95
2022-08-03T15:35:32.727Z,35.92
2022-08-03T15:38:03.953Z,31.98
2022-08-03T15:40:35.665Z,35.82
2022-08-03T15:43:15.764Z,35.57
2022-08-03T15:45:45.236Z,35.77
2022-08-03T15:48:13.215Z,35.71
2022-08-03T15:50:41.282Z,35.43
2022-08-03T15:53:12.308Z,31.73
2022-08-03T15:55:48.773Z,32.28
2022-08-03T16:01:08.121Z,35.05
2022-08-03T16:03:35.633Z,30.53
2022-08-03T16:06:07.570Z,31.06
2022-08-03T16:08:34.837Z,34.71
2022-08-03T16:11:02.909Z,34.40
2022-08-03T16:14:13.726Z,31.94
2022-08-03T16:16:24.288Z,33.44
2022-08-03T16:18:51.303Z,34.47
2022-08-03T16:21:19.362Z,33.56
2022-08-03T16:23:48.258Z,35.03
2022-08-03T16:26:16.753Z,33.04
2022-08-03T16:28:45.011Z,31.64
2022-08-03T16:31:12.386Z,33.34
2022-08-03T16:33:40.762Z,34.69
2022-08-03T16:36:07.967Z,32.73
2022-08-03T16:38:56.236Z,33.29
2022-08-03T16:41:24.423Z,33.30
2022-08-03T16:43:51.463Z,34.56
2022-08-03T16:46:19.427Z,33.49
2022-08-03T16:48:46.616Z,30.98
2022-08-03T16:51:14.587Z,32.17
2022-08-03T16:54:07.201Z,33.52
2022-08-03T16:56:29.445Z,34.51
2022-08-03T16:58:57.189Z,30.99
2022-08-03T17:01:25.170Z,34.49
2022-08-03T17:04:04.928Z,34.39
2022-08-03T17:06:45.156Z,33.79
2022-08-03T17:09:19.114Z,34.15
2022-08-03T17:11:50.399Z,33.92
2022-08-03T17:14:22.038Z,33.86
2022-08-03T17:16:52.081Z,33.00
2022-08-03T17:19:23.495Z,33.70
2022-08-03T17:22:04.137Z,32.11
2022-08-03T17:24:41.560Z,32.17
2022-08-03T17:28:41.998Z,32.87
2022-08-03T17:30:13.499Z,32.87
2022-08-03T17:32:56.947Z,30.49
2022-08-03T17:35:35.535Z,33.03
2022-08-03T17:38:05.876Z,31.52
2022-08-03T17:40:34.296Z,29.55
2022-08-03T17:43:02.210Z,32.58
2022-08-03T17:45:53.006Z,30.61
2022-08-03T17:48:25.094Z,32.32
2022-08-03T17:51:00.473Z,27.05
2022-08-03T17:53:31.234Z,30.15
2022-08-03T17:56:45.171Z,31.54
2022-08-03T17:59:15.854Z,31.86
2022-08-03T18:02:29.931Z,29.53
2022-08-03T18:05:17.227Z,30.51
2022-08-03T18:07:47.873Z,31.60
2022-08-03T18:10:22.175Z,30.11
2022-08-03T18:13:10.615Z,30.72
2022-08-03T18:15:43.861Z,28.89
2022-08-03T18:18:11.646Z,30.68
2022-08-03T18:20:42.152Z,28.23
2022-08-03T18:23:25.393Z,28.06
2022-08-03T18:26:10.782Z,31.09
2022-08-03T18:28:42.176Z,30.94
2022-08-03T18:31:13.210Z,28.47
2022-08-03T18:34:16.562Z,28.98
2022-08-03T18:36:49.135Z,30.30
2022-08-03T18:39:17.063Z,30.33
2022-08-03T18:41:46.914Z,29.35
2022-08-03T18:44:37.566Z,29.80
2022-08-03T18:47:07.344Z,30.32
2022-08-03T18:49:42.762Z,30.20
2022-08-03T18:52:37.345Z,28.77
2022-08-03T18:56:01.410Z,29.92
2022-08-03T18:58:41.241Z,26.86
2022-08-03T19:02:00.250Z,29.73
2022-08-03T19:04:17.006Z,26.57
2022-08-03T19:06:45.803Z,28.93
2022-08-03T19:09:23.254Z,29.07
2022-08-03T19:12:14.016Z,26.88
2022-08-03T19:14:47.759Z,28.53
2022-08-03T19:17:21.297Z,24.25
2022-08-03T19:19:52.009Z,27.32
2022-08-03T19:22:23.040Z,28.91
2022-08-03T19:24:51.807Z,24.42
2022-08-03T19:27:20.691Z,26.09
2022-08-03T19:29:58.823Z,27.32
2022-08-03T19:32:30.372Z,26.62
2022-08-03T19:34:59.832Z,22.93
2022-08-03T19:37:38.422Z,23.93
2022-08-03T19:40:10.803Z,23.90
2022-08-03T19:42:41.389Z,28.24
2022-08-03T19:45:14.352Z,27.20
2022-08-03T19:47:46.763Z,26.67
2022-08-03T19:50:16.262Z,25.99
2022-08-03T19:52:45.045Z,28.01
2022-08-03T19:55:12.763Z,22.65
2022-08-03T19:57:43.719Z,27.86
2022-08-03T20:00:14.236Z,27.76
2022-08-03T20:02:43.040Z,23.92
2022-08-03T20:05:14.900Z,27.64
2022-08-03T20:07:48.230Z,25.82
2022-08-03T20:10:17.825Z,23.91
2022-08-03T20:12:46.264Z,23.86
2022-08-03T20:15:13.439Z,25.43
2022-08-03T20:17:54.849Z,26.25
2022-08-03T20:20:39.030Z,25.71
2022-08-03T20:23:11.221Z,27.17
2022-08-03T20:25:57.043Z,27.04
2022-08-03T20:28:50.314Z,26.99
2022-08-03T20:31:20.830Z,26.52
2022-08-03T20:33:53.418Z,23.60
2022-08-03T20:36:20.820Z,23.78
2022-08-03T20:38:50.175Z,24.19
2022-08-03T20:41:20.347Z,20.96
2022-08-03T20:43:51.056Z,23.85
2022-08-03T20:46:29.483Z,25.12
2022-08-03T20:49:05.563Z,22.68
2022-08-03T20:51:50.067Z,22.08
2022-08-03T20:54:31.043Z,26.62
2022-08-03T20:57:04.099Z,24.44
2022-08-03T20:59:47.671Z,21.91
2022-08-03T21:02:29.926Z,25.32
2022-08-03T21:05:08.529Z,24.58
2022-08-03T21:07:45.992Z,26.32
2022-08-03T21:10:31.717Z,26.26
2022-08-03T21:13:15.941Z,26.24
2022-08-03T21:16:03.188Z,24.35
2022-08-03T21:18:38.583Z,26.16
2022-08-03T21:21:06.576Z,24.09
2022-08-03T21:23:41.541Z,22.67
2022-08-03T21:26:18.130Z,22.17
2022-08-03T21:28:47.153Z,25.97
2022-08-03T21:31:24.860Z,25.96
2022-08-03T21:33:59.086Z,23.48
2022-08-03T21:36:27.770Z,23.48
2022-08-03T21:38:57.537Z,22.20
2022-08-03T21:41:31.067Z,25.94
2022-08-03T21:44:00.157Z,25.91
2022-08-03T21:46:30.735Z,22.86
2022-08-03T21:50:05.805Z,25.79
2022-08-03T21:51:52.116Z,23.87
2022-08-03T21:54:21.706Z,23.58
2022-08-03T21:56:51.410Z,24.03
2022-08-03T21:59:20.283Z,25.40
2022-08-03T22:01:51.592Z,24.38
2022-08-03T22:04:53.322Z,25.52
2022-08-03T22:07:10.243Z,25.47
2022-08-03T22:09:39.192Z,24.72
2022-08-03T22:12:06.583Z,25.45
2022-08-03T22:14:34.025Z,22.77
2022-08-03T22:17:06.350Z,22.25
2022-08-03T22:19:34.586Z,23.43
2022-08-03T22:22:06.114Z,25.29
2022-08-03T22:24:35.768Z,25.24
2022-08-03T22:27:22.291Z,24.94
2022-08-03T22:29:50.704Z,25.10
2022-08-03T22:32:17.806Z,24.35
2022-08-03T22:34:48.126Z,24.43
2022-08-03T22:37:20.528Z,24.19
2022-08-03T22:39:49.917Z,22.67
2022-08-03T22:42:17.452Z,21.62
2022-08-03T22:44:45.302Z,24.31
2022-08-03T22:47:14.117Z,23.84
2022-08-03T22:50:32.894Z,22.82
2022-08-03T22:52:42.893Z,24.73
2022-08-03T22:55:18.849Z,24.78
2022-08-03T22:57:55.673Z,22.79
2022-08-03T23:00:24.315Z,23.80
2022-08-03T23:02:54.187Z,22.76
2022-08-03T23:06:02.142Z,23.36
2022-08-03T23:08:13.113Z,23.22
2022-08-03T23:10:46.153Z,20.97
2022-08-03T23:13:17.043Z,19.34
2022-08-03T23:15:50.019Z,21.58
2022-08-03T23:18:19.772Z,22.79
2022-08-03T23:20:50.595Z,18.84
2022-08-03T23:23:19.960Z,19.52
2022-08-03T23:25:50.491Z,23.06
2022-08-03T23:28:19.611Z,21.41
2022-08-03T23:30:47.546Z,17.81
2022-08-03T23:33:18.378Z,23.26
2022-08-03T23:36:29.005Z,22.86
2022-08-03T23:38:45.141Z,23.84
2022-08-03T23:41:12.834Z,21.00
2022-08-03T23:43:52.227Z,22.32
2022-08-03T23:46:24.126Z,19.64
2022-08-03T23:48:51.477Z,23.65
2022-08-03T23:51:35.199Z,21.51
2022-08-03T23:54:31.643Z,22.18
2022-08-03T23:57:15.145Z,23.22
